Time;durP1;ratioP1;P1;durP2;ratioP2;P2;SDS_P1;SDS_P2;PMS_P1;PMS_P2;Temp;Humidity;BMP_temperature;BMP_pressure;BME280_temperature;BME280_humidity;BME280_pressure;Samples;Min_cycle;Max_cycle;Signal;HPM_P1;HPM_P2
2022/08/15 00:00:45;;;;;;;5.40;4.90;;;25.70;53.10;;;;;;5004450;28;20444;-85
2022/08/15 00:03:21;;;;;;;4.70;4.30;;;25.60;53.50;;;;;;5011379;28;20443;-84
2022/08/15 00:05:49;;;;;;;5.20;4.67;;;25.70;53.90;;;;;;5018337;28;20490;-84
2022/08/15 00:08:17;;;;;;;5.97;4.73;;;25.70;53.80;;;;;;5007899;28;20436;-85
2022/08/15 00:10:45;;;;;;;5.33;4.90;;;25.60;53.30;;;;;;5005107;28;20466;-85
2022/08/15 00:13:14;;;;;;;5.97;4.40;;;25.60;53.20;;;;;;5005318;28;20444;-85
2022/08/15 00:15:41;;;;;;;5.20;4.70;;;25.70;53.40;;;;;;5005515;28;20443;-85
2022/08/15 00:18:08;;;;;;;5.17;4.67;;;25.70;53.10;;;;;;5004640;28;20498;-85
2022/08/15 00:20:37;;;;;;;7.83;4.40;;;25.70;53.00;;;;;;5013343;28;20467;-84
2022/08/15 00:23:07;;;;;;;5.10;4.70;;;25.70;53.00;;;;;;5011994;28;20539;-85
2022/08/15 00:25:37;;;;;;;5.20;4.70;;;25.60;53.20;;;;;;5009548;28;20556;-85
2022/08/15 00:28:06;;;;;;;5.90;5.40;;;25.60;53.10;;;;;;5005986;28;20454;-85
2022/08/15 00:30:34;;;;;;;6.90;4.90;;;25.50;52.90;;;;;;5005142;28;20474;-85
2022/08/15 00:33:00;;;;;;;9.10;5.50;;;25.50;53.20;;;;;;5006259;28;20540;-85
2022/08/15 00:35:37;;;;;;;5.00;4.60;;;25.50;53.40;;;;;;5005625;28;20498;-85
2022/08/15 00:38:06;;;;;;;4.80;4.40;;;25.40;53.60;;;;;;5006372;28;20826;-85
2022/08/15 00:41:39;;;;;;;5.10;4.60;;;25.20;53.90;;;;;;5005075;28;20491;-84
2022/08/15 00:43:21;;;;;;;5.77;4.80;;;25.10;54.10;;;;;;5000383;28;20819;-84
2022/08/15 00:45:49;;;;;;;5.27;4.87;;;25.00;54.50;;;;;;4998749;28;20487;-85
2022/08/15 00:51:00;;;;;;;5.63;4.80;;;24.90;55.30;;;;;;5000057;28;20430;-84
2022/08/15 00:53:28;;;;;;;5.07;4.67;;;24.80;57.30;;;;;;5000595;28;20435;-84
2022/08/15 00:55:57;;;;;;;5.37;4.87;;;24.60;58.80;;;;;;4999982;28;20447;-84
2022/08/15 00:58:24;;;;;;;5.93;5.47;;;24.50;60.70;;;;;;4999177;28;20451;-84
2022/08/15 01:00:51;;;;;;;5.73;5.23;;;24.50;62.70;;;;;;5006393;28;20446;-84
2022/08/15 01:03:24;;;;;;;5.00;4.53;;;24.50;64.60;;;;;;5007812;28;20473;-84
2022/08/15 01:05:54;;;;;;;5.40;5.00;;;24.40;64.80;;;;;;5015939;28;20487;-84
2022/08/15 01:08:23;;;;;;;5.80;5.20;;;24.50;65.60;;;;;;5014116;28;20509;-85
2022/08/15 01:10:52;;;;;;;5.70;5.20;;;24.40;64.10;;;;;;5004652;28;20447;-85
2022/08/15 01:13:18;;;;;;;6.40;5.37;;;24.30;65.20;;;;;;5004372;28;20443;-85
2022/08/15 01:15:45;;;;;;;6.00;5.40;;;24.30;67.80;;;;;;5003759;28;20443;-85
2022/08/15 01:18:14;;;;;;;6.10;5.60;;;24.30;68.20;;;;;;5004831;28;20978;-85
2022/08/15 01:20:42;;;;;;;5.90;5.40;;;24.30;67.60;;;;;;5004735;28;20482;-85
2022/08/15 01:23:15;;;;;;;7.93;6.40;;;24.30;69.80;;;;;;5014206;28;20451;-84
2022/08/15 01:25:47;;;;;;;8.10;7.30;;;24.30;72.90;;;;;;5019248;28;20502;-84
2022/08/15 01:28:17;;;;;;;7.53;6.83;;;24.30;72.80;;;;;;5019275;28;20423;-84
2022/08/15 01:30:49;;;;;;;8.30;6.97;;;24.30;74.00;;;;;;5012472;28;20431;-85
2022/08/15 01:33:17;;;;;;;7.70;6.83;;;24.20;73.30;;;;;;5000504;28;20447;-84
2022/08/15 01:35:45;;;;;;;9.40;8.60;;;24.10;74.90;;;;;;4998192;28;20439;-84
2022/08/15 01:38:21;;;;;;;7.70;6.90;;;24.10;73.90;;;;;;5004596;28;20455;-84
2022/08/15 01:40:59;;;;;;;7.10;6.47;;;24.10;74.50;;;;;;5019969;28;20462;-84
2022/08/15 01:43:31;;;;;;;5.30;4.90;;;24.00;74.50;;;;;;5018932;28;20419;-84
2022/08/15 01:46:03;;;;;;;6.87;5.43;;;24.00;73.00;;;;;;5006328;28;20468;-84
2022/08/15 01:48:34;;;;;;;8.40;7.73;;;24.00;73.70;;;;;;5000842;28;20440;-84
2022/08/15 01:51:06;;;;;;;7.63;6.90;;;23.90;75.80;;;;;;5001028;28;20463;-84
2022/08/15 01:53:39;;;;;;;6.87;6.10;;;23.80;78.10;;;;;;5011988;28;20950;-84
2022/08/15 01:56:12;;;;;;;8.20;7.40;;;23.80;78.30;;;;;;5010986;28;20435;-85
2022/08/15 01:58:42;;;;;;;5.93;5.50;;;23.80;78.70;;;;;;5008965;28;20463;-85
2022/08/15 02:01:12;;;;;;;5.60;5.10;;;23.80;76.10;;;;;;5007780;28;20470;-85
2022/08/15 02:03:40;;;;;;;5.33;4.83;;;23.80;75.40;;;;;;5005509;28;20443;-84
2022/08/15 02:06:11;;;;;;;5.00;4.60;;;23.80;74.30;;;;;;5015341;28;20483;-84
2022/08/15 02:08:38;;;;;;;6.37;5.63;;;23.70;73.40;;;;;;5011427;28;20486;-84
2022/08/15 02:11:10;;;;;;;5.20;4.70;;;23.60;74.60;;;;;;5008895;28;20822;-84
2022/08/15 02:13:37;;;;;;;6.13;5.50;;;23.60;75.40;;;;;;5004359;28;20451;-84
2022/08/15 02:16:05;;;;;;;5.87;5.10;;;23.60;76.10;;;;;;5004723;28;20791;-85
2022/08/15 02:18:31;;;;;;;7.40;5.20;;;23.50;76.60;;;;;;5004403;28;20498;-85
2022/08/15 02:20:58;;;;;;;6.63;5.73;;;23.50;77.10;;;;;;5004300;28;20482;-84
2022/08/15 02:23:26;;;;;;;5.80;5.40;;;23.50;77.80;;;;;;5004032;28;20936;-84
2022/08/15 02:25:54;;;;;;;5.00;4.50;;;23.40;78.80;;;;;;5004484;28;20487;-85
2022/08/15 02:28:23;;;;;;;8.37;5.07;;;23.30;79.20;;;;;;5003189;28;20447;-84
2022/08/15 02:30:51;;;;;;;5.77;5.27;;;23.40;80.00;;;;;;5004625;28;20465;-85
2022/08/15 02:33:17;;;;;;;8.53;5.87;;;23.30;80.40;;;;;;5006960;28;20473;-84
2022/08/15 02:35:44;;;;;;;5.70;5.23;;;23.30;80.90;;;;;;5013561;28;20928;-84
2022/08/15 02:38:11;;;;;;;5.07;4.60;;;23.40;80.70;;;;;;5014212;28;20475;-85
2022/08/15 02:40:37;;;;;;;5.70;4.87;;;23.40;80.30;;;;;;5005145;28;20486;-85
2022/08/15 02:43:07;;;;;;;6.80;6.13;;;23.50;80.00;;;;;;5006025;28;20456;-84
2022/08/15 02:45:38;;;;;;;7.03;5.90;;;23.50;79.80;;;;;;5003556;28;20999;-85
2022/08/15 02:48:05;;;;;;;5.33;4.80;;;23.50;79.90;;;;;;5003267;28;20462;-85
2022/08/15 02:50:32;;;;;;;6.13;5.47;;;23.60;79.80;;;;;;5002182;28;20848;-85
2022/08/15 02:53:00;;;;;;;6.70;4.93;;;23.60;80.30;;;;;;5002885;28;21004;-85
2022/08/15 02:55:27;;;;;;;5.90;5.37;;;23.50;80.30;;;;;;5003418;28;20490;-85
2022/08/15 02:57:54;;;;;;;4.80;4.40;;;23.50;80.70;;;;;;5010632;28;20448;-85
2022/08/15 03:00:22;;;;;;;5.50;5.00;;;23.50;80.50;;;;;;5004567;28;20475;-85
2022/08/15 03:02:53;;;;;;;4.90;4.43;;;23.50;80.60;;;;;;5002537;28;20486;-85
2022/08/15 03:05:20;;;;;;;6.77;5.70;;;23.50;81.00;;;;;;5002286;28;20495;-84
2022/08/15 03:07:47;;;;;;;5.10;4.60;;;23.50;81.10;;;;;;5003348;28;20955;-85
2022/08/15 03:10:15;;;;;;;5.63;5.13;;;23.50;81.30;;;;;;5003814;28;20463;-85
2022/08/15 03:12:53;;;;;;;5.40;4.90;;;23.50;82.60;;;;;;5003049;28;20455;-85
2022/08/15 03:15:21;;;;;;;6.80;5.03;;;23.40;81.80;;;;;;5003047;28;20447;-85
2022/08/15 03:17:49;;;;;;;5.90;4.40;;;23.40;82.40;;;;;;4993188;28;20443;-84
2022/08/15 03:20:18;;;;;;;5.40;4.67;;;23.30;82.50;;;;;;4992807;28;20471;-84
2022/08/15 03:22:46;;;;;;;5.97;5.30;;;23.30;83.00;;;;;;4994994;28;20555;-84
2022/08/15 03:25:13;;;;;;;5.70;4.50;;;23.30;83.60;;;;;;5003595;28;20546;-85
2022/08/15 03:27:41;;;;;;;6.30;4.80;;;23.30;84.20;;;;;;5008080;28;20455;-85
2022/08/15 03:30:10;;;;;;;5.97;4.67;;;23.30;84.80;;;;;;5003901;28;20468;-84
2022/08/15 03:32:45;;;;;;;6.00;4.90;;;23.30;84.70;;;;;;5003286;28;20475;-85
2022/08/15 03:35:12;;;;;;;5.37;4.70;;;23.30;84.40;;;;;;5002424;28;20447;-84
2022/08/15 03:37:40;;;;;;;5.83;5.00;;;23.30;84.70;;;;;;5001966;28;20451;-85
2022/08/15 03:40:09;;;;;;;5.40;4.20;;;23.20;84.70;;;;;;5005249;28;20892;-84
2022/08/15 03:42:36;;;;;;;5.93;4.53;;;23.10;85.30;;;;;;5007142;28;20439;-84
2022/08/15 03:45:04;;;;;;;5.33;4.83;;;23.10;85.70;;;;;;5001261;28;20447;-85
2022/08/15 03:47:31;;;;;;;5.20;4.70;;;23.10;86.00;;;;;;5003840;28;20526;-85
2022/08/15 03:49:59;;;;;;;5.23;4.33;;;23.00;86.30;;;;;;5004313;28;21050;-85
2022/08/15 03:52:26;;;;;;;5.00;4.47;;;23.10;86.70;;;;;;5004188;28;20462;-85
2022/08/15 03:54:54;;;;;;;6.83;4.60;;;23.00;87.50;;;;;;5004534;28;20451;-85
2022/08/15 03:57:21;;;;;;;5.97;4.73;;;23.00;88.40;;;;;;5002975;28;20502;-84
2022/08/15 03:59:48;;;;;;;6.20;4.47;;;23.00;88.80;;;;;;5002866;28;20459;-85
2022/08/15 04:02:14;;;;;;;6.20;4.93;;;23.00;89.30;;;;;;5003325;28;20462;-85
2022/08/15 04:04:41;;;;;;;4.40;4.00;;;23.00;89.80;;;;;;5003780;28;20459;-85
2022/08/15 04:07:08;;;;;;;6.30;4.37;;;23.00;90.20;;;;;;5008479;28;20516;-85
2022/08/15 04:09:34;;;;;;;5.30;4.77;;;23.00;90.50;;;;;;5008271;28;20462;-85
2022/08/15 04:12:03;;;;;;;4.40;3.67;;;22.90;91.00;;;;;;5007888;28;20515;-85
2022/08/15 04:14:30;;;;;;;4.27;3.70;;;22.80;91.60;;;;;;5016986;28;20447;-84
2022/08/15 04:16:59;;;;;;;4.77;3.87;;;22.70;92.50;;;;;;5016375;28;20495;-85
2022/08/15 04:19:25;;;;;;;4.63;4.23;;;22.50;93.10;;;;;;5006545;28;20459;-85
2022/08/15 04:21:52;;;;;;;4.33;3.93;;;22.50;93.30;;;;;;5006821;28;20448;-85
2022/08/15 04:24:19;;;;;;;6.57;4.83;;;22.50;93.00;;;;;;5006450;28;20448;-85
2022/08/15 04:26:45;;;;;;;5.30;4.17;;;22.50;93.10;;;;;;5006087;28;20890;-85
2022/08/15 04:29:13;;;;;;;5.80;4.63;;;22.50;93.30;;;;;;5006227;28;20467;-85
2022/08/15 04:31:40;;;;;;;5.30;4.47;;;22.50;93.50;;;;;;5005687;28;20454;-85
2022/08/15 04:34:08;;;;;;;4.87;3.40;;;22.50;93.50;;;;;;5005746;28;20474;-85
2022/08/15 04:36:35;;;;;;;4.77;3.67;;;22.60;93.10;;;;;;5010404;28;20458;-84
2022/08/15 04:41:33;;;;;;;3.83;3.47;;;22.40;92.70;;;;;;5012508;28;20975;-84
2022/08/15 04:44:00;;;;;;;4.80;3.53;;;22.40;93.00;;;;;;5019024;28;20434;-83
2022/08/15 04:46:28;;;;;;;3.50;3.20;;;22.40;92.90;;;;;;5031822;28;20487;-83
2022/08/15 04:48:56;;;;;;;4.87;3.20;;;22.20;92.80;;;;;;5030459;28;20481;-84
2022/08/15 04:51:22;;;;;;;4.10;3.67;;;22.30;92.90;;;;;;5028157;28;20492;-84
2022/08/15 04:53:49;;;;;;;4.80;3.57;;;22.30;93.00;;;;;;5024579;28;20450;-82
2022/08/15 04:56:16;;;;;;;3.97;3.57;;;22.20;93.10;;;;;;5024416;28;20451;-81
2022/08/15 04:58:43;;;;;;;3.50;3.00;;;22.30;93.40;;;;;;5020288;28;20958;-82
2022/08/15 05:01:12;;;;;;;3.97;3.57;;;22.30;93.20;;;;;;5019820;28;20470;-82
2022/08/15 05:03:40;;;;;;;3.53;3.23;;;22.30;93.10;;;;;;5022018;28;20474;-81
2022/08/15 05:06:10;;;;;;;4.50;3.57;;;22.40;93.20;;;;;;5019696;28;20489;-81
2022/08/15 05:08:39;;;;;;;4.30;3.37;;;22.40;93.30;;;;;;5020594;28;20456;-81
2022/08/15 05:11:08;;;;;;;4.70;3.53;;;22.30;93.40;;;;;;5020779;28;20471;-84
2022/08/15 05:13:37;;;;;;;4.60;3.67;;;22.30;93.70;;;;;;5020953;28;20848;-82
2022/08/15 05:16:07;;;;;;;6.97;3.60;;;22.20;94.00;;;;;;5031822;28;20438;-84
2022/08/15 05:18:35;;;;;;;7.13;3.90;;;22.10;94.30;;;;;;5036751;28;20918;-84
2022/08/15 05:21:03;;;;;;;4.07;3.27;;;22.10;94.50;;;;;;5020650;28;20890;-84
2022/08/15 05:23:31;;;;;;;3.20;2.90;;;22.10;94.80;;;;;;5019248;28;21115;-84
2022/08/15 05:26:00;;;;;;;4.83;3.30;;;22.10;94.70;;;;;;5020122;28;20450;-84
2022/08/15 05:28:27;;;;;;;4.77;3.90;;;22.10;94.80;;;;;;5020302;28;20454;-83
2022/08/15 05:30:55;;;;;;;4.03;3.63;;;22.10;95.20;;;;;;5021109;28;20474;-83
2022/08/15 05:33:25;;;;;;;6.77;3.93;;;22.10;94.80;;;;;;5029515;28;20419;-84
2022/08/15 05:35:55;;;;;;;3.20;2.70;;;22.10;95.00;;;;;;5033112;28;20461;-84
2022/08/15 05:38:26;;;;;;;4.63;3.67;;;22.10;95.00;;;;;;5021417;28;20454;-84
2022/08/15 05:41:09;;;;;;;4.90;3.00;;;22.20;94.90;;;;;;5028278;28;20481;-85
2022/08/15 05:43:43;;;;;;;5.57;3.63;;;22.10;94.70;;;;;;5025042;28;20478;-85
2022/08/15 05:46:21;;;;;;;4.83;3.03;;;22.10;94.80;;;;;;5031602;28;20463;-84
2022/08/15 05:48:54;;;;;;;3.63;3.10;;;22.00;95.10;;;;;;5033134;28;20823;-84
2022/08/15 05:51:30;;;;;;;7.60;3.50;;;22.00;95.50;;;;;;5024175;28;20831;-82
2022/08/15 05:54:15;;;;;;;3.77;3.10;;;21.80;95.70;;;;;;5020959;28;20459;-84
2022/08/15 05:56:52;;;;;;;3.97;3.50;;;21.90;95.90;;;;;;5020758;28;20446;-83
2022/08/15 05:59:23;;;;;;;3.03;2.73;;;21.80;96.10;;;;;;5020100;28;20474;-83
2022/08/15 06:01:55;;;;;;;4.63;3.20;;;21.80;96.50;;;;;;5018996;28;20455;-84
2022/08/15 06:04:28;;;;;;;3.90;3.60;;;21.90;96.40;;;;;;5026521;28;20450;-84
2022/08/15 06:06:56;;;;;;;4.37;3.60;;;21.90;96.20;;;;;;5018085;28;20500;-84
2022/08/15 06:09:33;;;;;;;3.80;3.17;;;21.90;96.20;;;;;;5009592;28;20983;-82
2022/08/15 06:12:03;;;;;;;4.20;3.30;;;21.90;96.20;;;;;;5004500;28;20474;-82
2022/08/15 06:14:34;;;;;;;3.50;3.20;;;22.00;96.30;;;;;;5028217;28;20434;-82
2022/08/15 06:17:05;;;;;;;3.70;2.87;;;22.10;96.10;;;;;;5029688;28;20434;-82
2022/08/15 06:19:34;;;;;;;4.47;3.37;;;22.10;96.10;;;;;;5024433;28;20464;-82
2022/08/15 06:22:09;;;;;;;4.67;3.80;;;22.10;96.10;;;;;;5035758;28;20442;-82
2022/08/15 06:24:51;;;;;;;5.27;3.13;;;22.00;96.10;;;;;;5026828;28;20438;-81
2022/08/15 06:27:30;;;;;;;3.27;2.97;;;22.00;96.30;;;;;;5020086;28;20510;-81
2022/08/15 06:30:06;;;;;;;3.03;2.57;;;21.90;97.10;;;;;;5013946;28;20459;-83
2022/08/15 06:32:40;;;;;;;5.10;3.53;;;21.80;98.00;;;;;;5024774;28;20470;-82
2022/08/15 06:35:17;;;;;;;4.93;4.17;;;21.70;98.50;;;;;;5015821;28;20459;-84
2022/08/15 06:37:53;;;;;;;6.87;3.97;;;21.70;99.10;;;;;;5018292;28;20438;-84
2022/08/15 06:40:25;;;;;;;4.80;3.70;;;21.60;99.20;;;;;;5019662;28;20478;-84
2022/08/15 06:42:51;;;;;;;5.53;3.53;;;21.60;99.20;;;;;;5016355;28;20446;-84
2022/08/15 06:45:22;;;;;;;4.13;2.70;;;21.60;99.20;;;;;;5012580;28;20458;-84
2022/08/15 06:47:52;;;;;;;3.10;2.80;;;21.70;99.30;;;;;;5022756;28;20564;-83
2022/08/15 06:50:22;;;;;;;4.20;3.53;;;21.80;99.10;;;;;;5017223;28;20506;-81
2022/08/15 06:52:53;;;;;;;6.40;4.27;;;21.80;99.20;;;;;;5013835;28;20942;-83
2022/08/15 06:55:21;;;;;;;4.10;3.50;;;21.80;99.60;;;;;;5008315;28;20458;-82
2022/08/15 06:57:57;;;;;;;3.87;2.83;;;21.90;99.00;;;;;;5011175;28;20443;-82
2022/08/15 07:00:30;;;;;;;5.27;3.07;;;22.00;98.20;;;;;;5021046;28;20488;-82
2022/08/15 07:03:05;;;;;;;5.03;2.83;;;22.10;97.80;;;;;;5029711;28;20450;-83
2022/08/15 07:05:41;;;;;;;3.43;2.80;;;22.50;96.40;;;;;;5039105;28;20427;-83
2022/08/15 07:08:16;;;;;;;4.27;3.13;;;23.90;93.20;;;;;;5026170;28;20472;-85
2022/08/15 07:10:48;;;;;;;3.70;3.30;;;25.10;87.40;;;;;;5018186;28;20465;-83
2022/08/15 07:13:20;;;;;;;6.00;2.67;;;25.50;82.50;;;;;;5009994;28;20467;-83
2022/08/15 07:15:53;;;;;;;5.60;2.97;;;26.20;79.20;;;;;;5004420;28;20884;-84
2022/08/15 07:18:29;;;;;;;7.33;2.70;;;27.00;75.30;;;;;;5015972;28;20437;-83
2022/08/15 07:21:00;;;;;;;4.10;3.00;;;28.40;69.30;;;;;;5033651;28;20461;-80
2022/08/15 07:23:28;;;;;;;2.33;2.10;;;29.10;62.90;;;;;;5038705;28;20517;-85
2022/08/15 07:26:03;;;;;;;2.80;2.60;;;28.50;59.60;;;;;;5021133;28;20449;-85
2022/08/15 07:28:33;;;;;;;3.10;2.80;;;26.80;65.60;;;;;;5028942;28;20844;-84
2022/08/15 07:31:06;;;;;;;3.57;3.10;;;25.90;69.90;;;;;;5022543;28;20462;-83
2022/08/15 07:33:39;;;;;;;4.60;2.60;;;25.40;74.10;;;;;;5039005;28;20448;-82
2022/08/15 07:36:14;;;;;;;3.33;2.60;;;26.50;72.50;;;;;;5029334;28;20574;-84
2022/08/15 07:38:41;;;;;;;3.00;2.70;;;28.60;66.20;;;;;;5018129;28;20448;-84
2022/08/15 07:41:21;;;;;;;3.40;2.60;;;29.10;60.00;;;;;;5011896;28;20483;-84
2022/08/15 07:43:50;;;;;;;4.67;2.30;;;28.40;61.80;;;;;;5017382;28;20706;-84
2022/08/15 07:46:20;;;;;;;4.13;2.50;;;28.40;61.40;;;;;;5022302;28;20447;-84
2022/08/15 07:48:56;;;;;;;3.07;2.20;;;28.70;61.00;;;;;;5027371;28;20565;-84
2022/08/15 07:51:26;;;;;;;3.03;2.73;;;28.90;59.90;;;;;;5006638;28;20455;-85
2022/08/15 07:53:56;;;;;;;3.17;2.53;;;29.50;58.60;;;;;;5013686;28;20477;-84
2022/08/15 07:56:28;;;;;;;3.33;2.97;;;29.50;57.70;;;;;;5009733;28;20503;-85
2022/08/15 07:59:09;;;;;;;4.00;2.53;;;29.00;58.20;;;;;;5019188;28;20819;-85
2022/08/15 08:01:36;;;;;;;3.00;2.70;;;28.60;59.00;;;;;;5012047;28;20454;-84
2022/08/15 08:04:09;;;;;;;3.50;2.60;;;27.40;60.30;;;;;;5016281;28;20458;-85
2022/08/15 08:06:40;;;;;;;5.10;3.30;;;27.00;63.20;;;;;;5028193;28;20424;-85
2022/08/15 08:09:19;;;;;;;2.40;2.20;;;26.70;64.90;;;;;;5015701;28;20435;-85
2022/08/15 08:11:52;;;;;;;3.70;2.90;;;26.90;65.10;;;;;;5010827;28;20438;-87
2022/08/15 08:14:50;;;;;;;2.73;2.53;;;28.10;63.50;;;;;;5023616;28;20451;-90
2022/08/15 08:17:33;;;;;;;2.23;2.00;;;29.20;59.10;;;;;;5040587;28;20516;-91
2022/08/15 08:45:43;;;;;;;;;;;;;;;;;;;;;
2022/08/15 08:49:01;;;;;;;3.40;2.30;;;34.70;46.00;;;;;;5000449;28;20994;-91
2022/08/15 08:52:02;;;;;;;3.50;2.70;;;34.70;44.60;;;;;;4997434;28;20447;-92
2022/08/15 08:55:16;;;;;;;2.33;1.97;;;36.00;43.30;;;;;;4992931;28;20489;-91
2022/08/15 09:04:17;;;;;;;1.90;1.80;;;35.40;41.20;;;;;;4992872;28;20443;-91
2022/08/15 09:07:08;;;;;;;2.60;2.10;;;34.60;41.90;;;;;;4996738;28;20453;-92
2022/08/15 09:20:05;;;;;;;2.90;2.70;;;31.10;50.10;;;;;;5203490;22;21055;-91
2022/08/15 09:22:35;;;;;;;3.80;3.40;;;32.40;48.90;;;;;;5050354;28;20518;-90
2022/08/15 09:25:02;;;;;;;3.53;3.23;;;32.30;48.40;;;;;;5052578;28;20427;-90
2022/08/15 09:27:33;;;;;;;5.80;3.33;;;31.60;49.40;;;;;;5059020;28;20482;-90
2022/08/15 09:30:07;;;;;;;3.63;2.97;;;32.70;49.30;;;;;;5056103;28;20465;-90
2022/08/15 09:32:49;;;;;;;2.67;2.40;;;34.80;45.30;;;;;;5062747;28;20449;-90
2022/08/15 09:35:33;;;;;;;5.60;3.00;;;34.60;44.60;;;;;;5071001;28;20436;-89
2022/08/15 09:38:19;;;;;;;4.70;3.03;;;36.10;42.50;;;;;;5065843;28;20522;-91
2022/08/15 09:41:07;;;;;;;2.70;2.50;;;37.80;40.00;;;;;;5053287;28;20460;-90
2022/08/15 09:43:55;;;;;;;3.47;2.93;;;36.70;39.90;;;;;;5052184;28;20443;-88
2022/08/15 09:46:49;;;;;;;4.30;3.40;;;36.20;41.40;;;;;;5047244;28;20863;-88
2022/08/15 09:49:34;;;;;;;2.90;2.60;;;37.80;39.40;;;;;;5054305;28;20531;-89
2022/08/15 09:52:22;;;;;;;2.80;2.50;;;38.10;38.60;;;;;;5063769;28;20802;-87
2022/08/15 09:54:54;;;;;;;3.37;3.07;;;38.80;37.60;;;;;;5064328;28;20462;-88
2022/08/15 09:57:27;;;;;;;3.10;2.90;;;40.20;35.30;;;;;;5069503;28;20434;-87
2022/08/15 09:59:59;;;;;;;4.07;3.17;;;39.80;35.10;;;;;;5064909;28;20482;-86
2022/08/15 10:02:32;;;;;;;2.87;2.60;;;39.30;35.50;;;;;;5067191;28;20445;-86
2022/08/15 10:05:21;;;;;;;2.63;2.43;;;41.20;34.10;;;;;;5058192;28;20462;-88
2022/08/15 10:07:55;;;;;;;2.60;2.40;;;40.50;33.30;;;;;;5056533;28;20536;-88
2022/08/15 10:10:45;;;;;;;3.77;2.63;;;38.70;35.00;;;;;;5057387;28;20468;-88
2022/08/15 10:13:44;;;;;;;2.60;2.40;;;39.20;35.60;;;;;;5065864;28;20444;-87
2022/08/15 10:16:45;;;;;;;5.30;2.73;;;38.50;35.20;;;;;;5066757;28;20439;-89
2022/08/15 10:19:29;;;;;;;3.33;2.60;;;37.20;37.20;;;;;;5074796;28;20448;-87
2022/08/15 10:21:58;;;;;;;3.03;2.83;;;36.30;37.90;;;;;;5059387;28;20472;-88
2022/08/15 10:24:32;;;;;;;3.40;3.07;;;35.90;38.80;;;;;;5047459;28;20479;-87
2022/08/15 10:27:15;;;;;;;4.63;2.80;;;37.70;37.50;;;;;;5040217;28;20480;-87
2022/08/15 10:29:48;;;;;;;2.67;2.47;;;39.90;34.70;;;;;;5038245;28;20955;-86
2022/08/15 10:32:35;;;;;;;3.20;2.80;;;41.40;32.90;;;;;;5043032;28;20442;-87
2022/08/15 10:35:06;;;;;;;2.80;2.60;;;42.30;31.40;;;;;;5048545;28;20477;-87
2022/08/15 10:37:39;;;;;;;2.77;2.57;;;42.70;30.60;;;;;;5034557;28;20441;-87
2022/08/15 10:40:36;;;;;;;2.80;2.60;;;41.70;31.50;;;;;;5050704;28;20457;-87
2022/08/15 10:43:48;;;;;;;2.90;2.60;;;42.20;31.00;;;;;;5041419;28;20434;-87
2022/08/15 10:46:51;;;;;;;2.60;2.40;;;43.20;29.40;;;;;;4978932;28;20449;-88
2022/08/15 10:49:33;;;;;;;3.33;2.57;;;43.00;29.70;;;;;;5046434;28;20485;-87
2022/08/15 10:52:16;;;;;;;3.73;3.43;;;42.60;30.00;;;;;;5042324;28;20458;-88
2022/08/15 10:55:07;;;;;;;2.60;2.00;;;43.10;29.70;;;;;;5044167;28;20878;-87
2022/08/15 10:57:48;;;;;;;3.30;2.87;;;43.60;28.80;;;;;;5054335;28;20410;-87
2022/08/15 11:00:18;;;;;;;3.80;2.43;;;44.70;28.10;;;;;;5065893;28;20457;-88
2022/08/15 11:02:48;;;;;;;3.00;2.77;;;45.00;27.30;;;;;;5047642;28;20434;-89
2022/08/15 11:05:19;;;;;;;2.90;2.70;;;45.70;26.90;;;;;;5051447;28;20455;-87
2022/08/15 11:07:49;;;;;;;3.53;2.80;;;45.90;26.20;;;;;;5047222;28;20606;-87
2022/08/15 11:10:18;;;;;;;2.87;2.60;;;45.60;26.60;;;;;;5046903;28;20546;-87
2022/08/15 11:12:51;;;;;;;2.50;2.30;;;46.40;26.20;;;;;;5052711;28;20461;-87
2022/08/15 11:15:21;;;;;;;2.83;2.63;;;46.70;25.60;;;;;;5041538;28;20846;-87
2022/08/15 11:17:54;;;;;;;4.40;2.47;;;44.40;26.30;;;;;;5039982;28;20444;-87
2022/08/15 11:20:27;;;;;;;3.43;2.13;;;41.30;29.30;;;;;;5041884;28;20528;-87
2022/08/15 11:22:57;;;;;;;2.63;2.43;;;39.90;30.50;;;;;;5041907;28;20520;-87
2022/08/15 11:25:26;;;;;;;2.50;2.30;;;39.00;32.00;;;;;;5038130;28;20827;-86
2022/08/15 11:28:03;;;;;;;2.60;2.40;;;37.00;34.10;;;;;;5047299;28;20490;-87
2022/08/15 11:30:33;;;;;;;2.77;2.57;;;36.30;36.50;;;;;;5055021;28;20460;-87
2022/08/15 11:33:18;;;;;;;2.80;2.37;;;37.80;34.90;;;;;;5062379;28;20481;-87
2022/08/15 11:35:45;;;;;;;2.53;2.33;;;38.90;33.40;;;;;;5066488;28;20409;-88
2022/08/15 11:38:16;;;;;;;3.03;2.73;;;39.30;32.60;;;;;;5062860;28;20450;-87
2022/08/15 11:40:49;;;;;;;2.77;2.57;;;39.00;30.20;;;;;;5066795;28;20438;-87
2022/08/15 11:43:18;;;;;;;2.20;2.07;;;39.90;30.50;;;;;;5068602;28;20517;-87
2022/08/15 11:45:48;;;;;;;3.47;2.23;;;40.30;30.30;;;;;;5064193;28;20511;-87
2022/08/15 11:48:21;;;;;;;3.23;2.40;;;39.40;30.60;;;;;;5071217;28;20511;-86
2022/08/15 11:51:03;;;;;;;2.70;1.97;;;39.10;31.60;;;;;;5061839;28;20460;-87
2022/08/15 11:53:36;;;;;;;3.03;2.37;;;39.70;31.10;;;;;;5051649;28;20446;-86
2022/08/15 11:56:05;;;;;;;3.37;2.20;;;39.10;31.50;;;;;;5050911;28;20438;-85
2022/08/15 11:58:44;;;;;;;3.50;2.57;;;37.00;33.40;;;;;;5049493;28;20445;-87
2022/08/15 12:01:31;;;;;;;2.33;2.13;;;35.50;35.40;;;;;;5055869;28;20599;-86
2022/08/15 12:04:04;;;;;;;3.83;2.30;;;35.00;36.80;;;;;;5048825;28;20976;-86
2022/08/15 12:06:34;;;;;;;2.73;2.53;;;34.80;36.70;;;;;;5056101;28;20448;-86
2022/08/15 12:09:20;;;;;;;2.47;2.27;;;34.90;36.80;;;;;;5052849;28;20529;-86
2022/08/15 12:11:53;;;;;;;2.70;2.50;;;35.70;36.30;;;;;;5051621;28;20977;-86
2022/08/15 12:14:34;;;;;;;2.33;2.13;;;38.60;33.30;;;;;;5058171;28;20433;-86
2022/08/15 12:17:05;;;;;;;2.60;2.40;;;40.90;30.80;;;;;;5075709;28;20423;-87
2022/08/15 12:19:46;;;;;;;2.47;2.23;;;42.60;28.90;;;;;;5059712;28;20453;-87
2022/08/15 12:22:27;;;;;;;3.57;2.53;;;43.60;27.30;;;;;;5052426;28;20630;-86
2022/08/15 12:24:55;;;;;;;4.57;2.70;;;43.90;27.20;;;;;;5045786;28;20855;-86
2022/08/15 12:27:30;;;;;;;3.90;2.20;;;44.30;26.40;;;;;;5047970;28;20472;-87
2022/08/15 12:29:58;;;;;;;2.33;2.13;;;44.90;26.70;;;;;;5061813;28;20891;-86
2022/08/15 12:32:25;;;;;;;3.07;2.07;;;45.30;25.90;;;;;;5074930;28;20443;-84
2022/08/15 12:34:54;;;;;;;2.87;2.67;;;44.50;26.00;;;;;;5066193;28;20462;-85
2022/08/15 12:37:25;;;;;;;3.23;2.33;;;42.50;27.00;;;;;;5056501;28;20476;-86
2022/08/15 12:39:55;;;;;;;2.93;2.70;;;39.40;29.50;;;;;;5047268;28;20608;-84
2022/08/15 12:42:25;;;;;;;2.73;2.40;;;39.20;30.90;;;;;;5048298;28;20442;-86
2022/08/15 12:44:55;;;;;;;6.20;2.73;;;40.50;29.80;;;;;;5052762;28;20444;-83
2022/08/15 12:47:26;;;;;;;3.40;3.10;;;41.70;28.40;;;;;;5056259;28;20456;-85
2022/08/15 12:49:53;;;;;;;3.50;3.20;;;41.50;28.40;;;;;;5056157;28;20465;-85
2022/08/15 12:52:24;;;;;;;3.40;2.53;;;41.80;28.30;;;;;;5054933;28;20458;-86
2022/08/15 12:54:52;;;;;;;2.20;2.00;;;41.20;28.30;;;;;;5060017;28;20451;-85
2022/08/15 12:57:20;;;;;;;3.27;2.60;;;39.50;29.50;;;;;;5055517;28;20444;-85
2022/08/15 12:59:47;;;;;;;5.53;2.87;;;38.10;31.40;;;;;;5059448;28;20472;-86
2022/08/15 13:02:14;;;;;;;2.93;2.73;;;37.40;32.60;;;;;;5056749;28;20828;-86
2022/08/15 13:04:48;;;;;;;3.90;2.63;;;36.40;33.20;;;;;;5055722;28;20443;-86
2022/08/15 13:07:16;;;;;;;3.53;2.60;;;35.40;34.40;;;;;;5079818;28;20466;-86
2022/08/15 13:09:44;;;;;;;3.07;2.87;;;34.80;35.40;;;;;;5076986;28;20479;-87
2022/08/15 13:12:11;;;;;;;6.47;3.60;;;34.30;36.60;;;;;;5054580;28;20440;-85
2022/08/15 13:14:38;;;;;;;6.10;2.80;;;33.90;37.80;;;;;;5052803;28;20490;-85
2022/08/15 13:17:05;;;;;;;3.20;2.90;;;33.50;38.40;;;;;;5051800;28;20448;-85
2022/08/15 13:23:34;;;;;;;4.00;3.60;;;33.40;38.70;;;;;;5059210;28;20460;-85
2022/08/15 13:25:09;;;;;;;3.17;2.87;;;32.60;39.60;;;;;;5056744;28;20433;-85
2022/08/15 13:27:36;;;;;;;5.40;2.90;;;32.50;39.90;;;;;;5054666;28;20440;-85
2022/08/15 13:30:07;;;;;;;3.47;2.40;;;32.30;40.00;;;;;;5054235;28;20480;-84
2022/08/15 13:32:35;;;;;;;4.60;3.13;;;32.30;40.20;;;;;;5054811;28;20434;-85
2022/08/15 13:35:01;;;;;;;4.50;3.67;;;32.70;39.80;;;;;;5057844;28;20507;-85
2022/08/15 13:37:30;;;;;;;4.60;3.63;;;33.00;39.40;;;;;;5058470;28;20448;-86
2022/08/15 13:39:56;;;;;;;3.17;2.73;;;33.20;39.10;;;;;;5063774;28;20466;-85
2022/08/15 13:42:24;;;;;;;4.10;2.70;;;33.30;39.10;;;;;;5070950;28;20424;-86
2022/08/15 13:44:53;;;;;;;4.20;2.80;;;34.50;38.00;;;;;;5060069;28;20866;-86
2022/08/15 13:47:22;;;;;;;3.67;3.37;;;36.50;35.00;;;;;;5057561;28;20446;-85
2022/08/15 13:49:49;;;;;;;4.87;3.20;;;38.30;32.40;;;;;;5058797;28;20891;-86
2022/08/15 13:52:16;;;;;;;3.60;3.07;;;38.30;31.50;;;;;;5057782;28;20457;-85
2022/08/15 13:54:44;;;;;;;3.77;3.10;;;36.90;32.70;;;;;;5051475;28;20443;-85
2022/08/15 13:57:12;;;;;;;4.73;2.90;;;35.70;34.30;;;;;;5048543;28;20817;-86
2022/08/15 13:59:39;;;;;;;5.93;3.30;;;34.90;35.60;;;;;;5043917;28;20524;-85
2022/08/15 14:02:08;;;;;;;3.50;3.20;;;34.40;36.40;;;;;;5051120;28;20873;-85
2022/08/15 14:04:39;;;;;;;5.23;3.30;;;33.60;37.40;;;;;;5056742;28;21021;-85